Time;durP1;ratioP1;P1;durP2;ratioP2;P2;SDS_P1;SDS_P2;PMS_P1;PMS_P2;Temp;Humidity;BMP_temperature;BMP_pressure;BME280_temperature;BME280_humidity;BME280_pressure;Samples;Min_cycle;Max_cycle;Signal;HPM_P1;HPM_P2
2021/03/07 00:02:02;;;;;;;7.10;5.75;;;4.40;76.50;;;;;;5117173;28;20047;-81
2021/03/07 00:04:27;;;;;;;7.10;5.78;;;4.40;76.70;;;;;;5100156;28;20012;-80
2021/03/07 00:06:53;;;;;;;8.15;6.00;;;4.30;76.80;;;;;;5130891;27;20523;-81
2021/03/07 00:09:18;;;;;;;6.95;5.63;;;4.30;76.90;;;;;;5113271;28;20039;-80
2021/03/07 00:11:44;;;;;;;9.80;6.10;;;4.30;77.20;;;;;;5090574;27;20042;-79
2021/03/07 00:14:10;;;;;;;6.82;5.63;;;4.30;76.90;;;;;;5131401;27;20015;-79
2021/03/07 00:16:35;;;;;;;7.70;6.03;;;4.30;76.90;;;;;;5129056;27;20289;-81
2021/03/07 00:19:01;;;;;;;9.18;6.88;;;4.40;76.80;;;;;;5098068;27;20042;-80
2021/03/07 00:21:30;;;;;;;9.20;6.15;;;4.40;77.30;;;;;;5130760;28;20032;-80
2021/03/07 00:23:55;;;;;;;7.70;5.93;;;4.40;77.00;;;;;;5126325;27;20036;-79
2021/03/07 00:26:21;;;;;;;9.30;6.65;;;4.30;77.60;;;;;;5104081;27;20035;-80
2021/03/07 00:28:47;;;;;;;8.02;6.05;;;4.30;77.80;;;;;;5119359;27;20072;-79
2021/03/07 00:31:12;;;;;;;7.90;5.82;;;4.30;78.40;;;;;;5096784;28;20099;-80
2021/03/07 00:33:38;;;;;;;6.80;5.30;;;4.30;78.20;;;;;;5119186;27;20039;-81
2021/03/07 00:36:03;;;;;;;6.85;5.80;;;4.00;79.20;;;;;;5126960;27;20043;-81
2021/03/07 00:38:29;;;;;;;8.35;5.85;;;4.00;79.00;;;;;;5125144;27;20099;-80
2021/03/07 00:40:54;;;;;;;8.85;5.95;;;3.90;79.10;;;;;;5127428;27;20055;-79
2021/03/07 00:43:21;;;;;;;7.35;5.75;;;3.80;79.20;;;;;;5112752;27;20035;-81
2021/03/07 00:45:49;;;;;;;10.50;6.47;;;3.90;79.20;;;;;;5105240;27;20199;-81
2021/03/07 00:48:15;;;;;;;9.07;5.95;;;3.80;79.40;;;;;;5138831;27;20060;-80
2021/03/07 00:50:40;;;;;;;7.18;6.32;;;3.90;79.40;;;;;;5104664;27;20585;-79
2021/03/07 00:53:06;;;;;;;8.60;6.15;;;3.90;79.30;;;;;;5120313;28;20027;-79
2021/03/07 00:55:32;;;;;;;8.30;5.97;;;3.90;78.80;;;;;;5091984;27;20055;-80
2021/03/07 00:57:57;;;;;;;8.80;5.95;;;3.80;79.00;;;;;;5110470;28;20056;-80
2021/03/07 01:00:26;;;;;;;6.80;6.10;;;3.80;79.00;;;;;;5084582;28;20038;-80
2021/03/07 01:02:52;;;;;;;9.40;5.70;;;3.90;78.90;;;;;;5098386;28;20032;-80
2021/03/07 01:05:18;;;;;;;7.47;5.97;;;3.80;78.60;;;;;;5099734;28;20036;-79
2021/03/07 01:07:44;;;;;;;9.20;6.13;;;3.90;78.40;;;;;;5098933;28;20035;-79
2021/03/07 01:10:24;;;;;;;8.13;5.93;;;3.80;78.60;;;;;;5100525;28;20027;-80
2021/03/07 01:12:51;;;;;;;8.48;6.05;;;3.80;79.50;;;;;;5112495;27;20363;-81
2021/03/07 01:15:22;;;;;;;9.20;6.70;;;3.80;79.00;;;;;;5117791;27;20031;-80
2021/03/07 01:17:48;;;;;;;6.95;6.07;;;3.80;79.00;;;;;;5089539;28;20405;-80
2021/03/07 01:20:16;;;;;;;8.50;6.30;;;3.80;79.40;;;;;;5097905;28;20028;-79
2021/03/07 01:22:42;;;;;;;10.57;7.03;;;3.70;79.60;;;;;;5081741;28;20031;-80
2021/03/07 01:25:08;;;;;;;8.13;6.25;;;3.80;79.10;;;;;;5082890;28;20096;-80
2021/03/07 01:27:35;;;;;;;10.15;6.68;;;3.80;79.40;;;;;;5100384;28;20073;-80
2021/03/07 01:30:00;;;;;;;9.30;6.40;;;3.80;79.40;;;;;;5100455;28;20114;-80
2021/03/07 01:32:27;;;;;;;7.40;6.13;;;3.70;79.60;;;;;;5116712;27;20057;-81
2021/03/07 01:34:52;;;;;;;8.40;6.28;;;3.60;79.60;;;;;;5118543;27;20059;-79
2021/03/07 01:37:18;;;;;;;8.70;6.07;;;3.60;79.60;;;;;;5113938;27;20099;-79
2021/03/07 01:39:44;;;;;;;9.32;7.35;;;3.60;79.50;;;;;;5085788;27;20046;-80
2021/03/07 01:42:12;;;;;;;6.90;6.00;;;3.60;79.60;;;;;;5101868;27;20490;-80
2021/03/07 01:44:38;;;;;;;8.88;6.55;;;3.70;79.20;;;;;;5101314;27;20056;-80
2021/03/07 01:47:04;;;;;;;8.07;6.28;;;3.70;79.10;;;;;;5100440;27;20101;-80
2021/03/07 01:49:30;;;;;;;7.25;6.20;;;3.60;79.10;;;;;;5101516;27;20114;-80
2021/03/07 01:51:56;;;;;;;7.78;5.68;;;3.60;79.20;;;;;;5102524;27;20424;-80
2021/03/07 01:54:22;;;;;;;10.35;6.57;;;3.70;78.80;;;;;;5111792;28;20050;-80
2021/03/07 01:56:50;;;;;;;9.82;6.80;;;3.50;79.30;;;;;;5117852;28;20490;-79
2021/03/07 01:59:19;;;;;;;9.73;6.28;;;3.50;79.30;;;;;;5081279;28;20032;-80
2021/03/07 02:01:46;;;;;;;9.60;6.97;;;3.50;79.90;;;;;;5097280;28;20035;-80
2021/03/07 02:04:12;;;;;;;8.57;5.80;;;3.60;79.20;;;;;;5099548;28;20027;-81
2021/03/07 02:06:37;;;;;;;7.50;6.20;;;3.40;79.70;;;;;;5111606;27;20122;-79
2021/03/07 02:09:03;;;;;;;9.68;6.55;;;3.40;79.80;;;;;;5089527;28;20040;-80
2021/03/07 02:11:29;;;;;;;8.02;6.00;;;3.50;79.80;;;;;;5094969;27;20058;-79
2021/03/07 02:13:57;;;;;;;8.07;6.75;;;3.40;79.60;;;;;;5099433;28;20467;-81
2021/03/07 02:16:25;;;;;;;8.18;6.28;;;3.50;79.30;;;;;;5097238;28;20126;-80
2021/03/07 02:18:53;;;;;;;6.93;6.22;;;3.40;79.30;;;;;;5098467;28;20126;-80
2021/03/07 02:21:21;;;;;;;8.57;5.90;;;3.50;79.20;;;;;;5097748;28;20502;-81
2021/03/07 02:24:11;;;;;;;7.95;5.50;;;3.40;79.40;;;;;;5098362;28;20027;-81
2021/03/07 02:26:43;;;;;;;7.10;5.75;;;3.40;79.30;;;;;;5113287;28;20035;-81
2021/03/07 02:29:10;;;;;;;7.68;6.00;;;3.30;79.80;;;;;;5101739;28;20088;-79
2021/03/07 02:31:42;;;;;;;8.07;6.00;;;3.30;79.90;;;;;;5098113;28;20110;-81
2021/03/07 02:34:17;;;;;;;8.32;6.68;;;3.20;80.10;;;;;;5098802;28;20035;-78
2021/03/07 02:36:47;;;;;;;10.73;5.95;;;3.20;79.80;;;;;;5089743;27;20058;-79
2021/03/07 02:39:15;;;;;;;7.43;6.03;;;3.20;80.00;;;;;;5105139;27;20047;-78
2021/03/07 02:41:40;;;;;;;9.45;6.60;;;3.20;80.40;;;;;;5101512;27;20483;-78
2021/03/07 02:44:11;;;;;;;8.20;6.50;;;3.20;80.90;;;;;;5103187;27;20039;-78
2021/03/07 02:46:37;;;;;;;7.88;6.20;;;3.20;80.60;;;;;;5105567;27;20118;-79
2021/03/07 02:49:08;;;;;;;8.50;6.18;;;3.20;80.40;;;;;;5123006;27;20027;-78
2021/03/07 02:51:35;;;;;;;9.27;6.18;;;3.10;80.40;;;;;;5089118;27;20031;-78
2021/03/07 02:54:07;;;;;;;9.13;6.25;;;3.00;80.60;;;;;;5116044;28;20123;-80
2021/03/07 02:56:36;;;;;;;7.90;6.20;;;3.10;80.50;;;;;;5100770;28;20036;-79
2021/03/07 02:59:06;;;;;;;8.15;6.47;;;3.10;80.50;;;;;;5100635;28;20031;-78
2021/03/07 03:01:32;;;;;;;7.72;6.30;;;3.20;80.20;;;;;;5084014;28;20062;-77
2021/03/07 03:04:00;;;;;;;7.70;6.60;;;3.10;79.90;;;;;;5120642;27;20068;-78
2021/03/07 03:06:27;;;;;;;7.75;6.10;;;3.20;79.80;;;;;;5103629;27;20031;-78
2021/03/07 03:08:55;;;;;;;8.30;6.60;;;3.20;79.40;;;;;;5084347;28;20055;-77
2021/03/07 03:11:24;;;;;;;8.32;6.38;;;3.20;79.40;;;;;;5101478;28;20063;-78
2021/03/07 03:13:52;;;;;;;8.35;6.13;;;3.20;79.40;;;;;;5119094;28;20027;-78
2021/03/07 03:16:21;;;;;;;7.80;5.70;;;3.10;79.40;;;;;;5111834;27;20027;-79
2021/03/07 03:18:48;;;;;;;8.75;6.15;;;3.10;79.20;;;;;;5104937;27;20155;-78
2021/03/07 03:21:14;;;;;;;7.72;6.63;;;3.10;79.30;;;;;;5136909;27;20030;-78
2021/03/07 03:23:43;;;;;;;6.75;5.82;;;3.10;78.90;;;;;;5121373;27;20027;-78
2021/03/07 03:26:09;;;;;;;7.10;5.88;;;3.10;79.10;;;;;;5134589;27;20059;-78
2021/03/07 03:28:38;;;;;;;8.27;6.30;;;3.10;79.10;;;;;;5082786;28;20038;-79
2021/03/07 03:31:04;;;;;;;11.23;6.20;;;3.00;79.40;;;;;;5108827;27;20046;-78
2021/03/07 03:33:29;;;;;;;8.88;6.32;;;3.10;79.30;;;;;;5088569;27;20027;-77
2021/03/07 03:35:55;;;;;;;8.00;6.15;;;3.10;79.10;;;;;;5088194;27;20043;-79
2021/03/07 03:38:25;;;;;;;7.78;5.72;;;3.10;79.20;;;;;;5140568;27;20104;-78
2021/03/07 03:40:56;;;;;;;7.70;5.57;;;3.10;79.10;;;;;;5089439;28;20114;-77
2021/03/07 03:43:23;;;;;;;9.52;6.35;;;3.10;78.80;;;;;;5095494;27;20039;-77
2021/03/07 03:45:53;;;;;;;7.65;5.90;;;2.90;79.50;;;;;;5121435;27;20050;-76
2021/03/07 03:48:21;;;;;;;7.45;6.03;;;2.90;79.30;;;;;;5086737;27;20072;-78
2021/03/07 03:50:49;;;;;;;9.40;6.30;;;3.00;78.90;;;;;;5105038;27;20061;-79
2021/03/07 03:53:17;;;;;;;9.30;6.47;;;2.90;79.00;;;;;;5138452;27;20113;-79
2021/03/07 03:55:47;;;;;;;7.40;6.70;;;2.90;79.00;;;;;;5121634;27;20039;-78
2021/03/07 03:58:15;;;;;;;8.27;6.90;;;2.80;79.60;;;;;;5104648;27;20040;-78
2021/03/07 04:00:43;;;;;;;7.50;6.13;;;2.70;79.90;;;;;;5093138;28;20521;-78
2021/03/07 04:03:17;;;;;;;9.38;5.88;;;2.80;79.80;;;;;;5101734;28;20067;-80
2021/03/07 04:05:48;;;;;;;9.13;6.47;;;2.80;79.30;;;;;;5101263;28;20031;-79
2021/03/07 04:08:16;;;;;;;10.38;6.70;;;2.80;79.60;;;;;;5084491;28;20110;-80
2021/03/07 04:10:42;;;;;;;8.18;5.90;;;2.80;79.70;;;;;;5119286;28;20073;-77
2021/03/07 04:13:10;;;;;;;7.80;6.20;;;2.90;79.60;;;;;;5084128;28;20096;-78
2021/03/07 04:15:37;;;;;;;7.10;5.60;;;2.90;79.50;;;;;;5101879;28;20028;-79
2021/03/07 04:18:08;;;;;;;9.05;6.07;;;2.90;79.30;;;;;;5083999;28;20039;-79
2021/03/07 04:20:34;;;;;;;9.40;6.32;;;2.90;79.40;;;;;;5100572;28;20048;-78
2021/03/07 04:23:00;;;;;;;10.40;6.82;;;3.00;78.90;;;;;;5084364;27;20030;-79
2021/03/07 04:25:25;;;;;;;10.40;6.32;;;3.00;78.90;;;;;;5096712;27;20031;-80
2021/03/07 04:27:52;;;;;;;9.55;6.60;;;3.10;78.90;;;;;;5113328;28;20522;-79
2021/03/07 04:30:18;;;;;;;7.22;5.82;;;3.10;78.80;;;;;;5091739;28;20028;-79
2021/03/07 04:32:45;;;;;;;9.07;6.13;;;3.10;78.80;;;;;;5099266;27;20035;-76
2021/03/07 04:35:12;;;;;;;7.55;6.35;;;3.20;78.50;;;;;;5103894;27;20035;-78
2021/03/07 04:37:38;;;;;;;9.60;5.93;;;3.20;78.40;;;;;;5085793;27;20043;-79
2021/03/07 04:40:05;;;;;;;8.13;6.60;;;3.20;78.70;;;;;;5139099;27;20070;-79
2021/03/07 04:42:31;;;;;;;9.52;6.78;;;3.20;78.90;;;;;;5126452;27;20035;-78
2021/03/07 04:44:57;;;;;;;8.50;6.40;;;3.00;79.30;;;;;;5081779;28;20495;-79
2021/03/07 04:47:23;;;;;;;8.32;6.30;;;2.80;79.50;;;;;;5084228;28;20104;-79
2021/03/07 04:49:48;;;;;;;8.05;6.57;;;2.90;79.40;;;;;;5079534;28;20067;-78
2021/03/07 04:52:14;;;;;;;10.98;6.55;;;3.00;79.40;;;;;;5077587;28;20020;-78
2021/03/07 04:54:39;;;;;;;8.85;6.65;;;2.90;79.60;;;;;;5078045;28;20024;-78
2021/03/07 04:57:05;;;;;;;9.65;6.80;;;2.90;79.80;;;;;;5094740;28;20441;-78
2021/03/07 04:59:31;;;;;;;10.63;6.63;;;2.80;79.70;;;;;;5095657;28;20036;-78
2021/03/07 05:01:57;;;;;;;7.95;7.15;;;2.80;80.00;;;;;;5077773;28;20067;-79
2021/03/07 05:04:26;;;;;;;8.75;6.63;;;2.70;80.10;;;;;;5097267;28;20075;-80
2021/03/07 05:06:52;;;;;;;9.43;6.53;;;2.80;79.80;;;;;;5095793;28;20036;-80
2021/03/07 05:09:17;;;;;;;9.45;6.75;;;2.80;79.80;;;;;;5083773;28;20032;-76
2021/03/07 05:11:43;;;;;;;12.43;7.70;;;2.70;79.80;;;;;;5102030;27;20098;-78
2021/03/07 05:14:09;;;;;;;9.35;6.93;;;2.70;80.30;;;;;;5102036;27;20038;-78
2021/03/07 05:16:34;;;;;;;11.80;6.85;;;2.50;80.70;;;;;;5104189;27;20106;-77
2021/03/07 05:19:01;;;;;;;9.30;7.03;;;2.50;80.90;;;;;;5099917;28;20070;-77
2021/03/07 05:21:27;;;;;;;10.50;7.55;;;2.40;81.10;;;;;;5117320;28;20028;-79
2021/03/07 05:23:56;;;;;;;8.60;6.60;;;2.40;81.30;;;;;;5116022;28;20036;-78
2021/03/07 05:26:22;;;;;;;8.15;7.35;;;2.40;81.50;;;;;;5081587;28;20032;-79
2021/03/07 05:28:48;;;;;;;10.00;7.30;;;2.30;81.60;;;;;;5100325;27;20498;-77
2021/03/07 05:31:14;;;;;;;11.88;7.63;;;2.10;82.20;;;;;;5122681;27;20420;-78
2021/03/07 05:33:40;;;;;;;9.85;7.25;;;2.00;82.80;;;;;;5106723;27;20558;-76
2021/03/07 05:36:06;;;;;;;8.25;6.97;;;2.00;82.90;;;;;;5118917;27;20035;-77
2021/03/07 05:38:32;;;;;;;10.70;7.38;;;2.00;82.80;;;;;;5092279;28;20035;-79
2021/03/07 05:40:58;;;;;;;8.82;7.57;;;2.00;82.50;;;;;;5099507;28;20043;-78
2021/03/07 05:43:24;;;;;;;11.65;8.02;;;2.00;82.90;;;;;;5091422;27;20039;-77
2021/03/07 05:45:50;;;;;;;10.55;7.97;;;1.90;82.80;;;;;;5102428;27;20387;-78
2021/03/07 05:48:16;;;;;;;11.57;9.18;;;1.80;83.10;;;;;;5137566;27;20529;-76
2021/03/07 05:50:43;;;;;;;12.48;8.85;;;1.80;83.40;;;;;;5139326;27;20067;-78
2021/03/07 05:53:08;;;;;;;10.07;8.27;;;2.00;82.70;;;;;;5096945;28;20065;-78
2021/03/07 05:55:34;;;;;;;10.40;8.20;;;2.00;82.40;;;;;;5113028;27;20043;-78
2021/03/07 05:58:02;;;;;;;12.05;8.05;;;2.00;82.50;;;;;;5138575;27;20117;-78
2021/03/07 06:00:28;;;;;;;9.40;7.90;;;2.00;82.10;;;;;;5130698;27;20077;-76
2021/03/07 06:02:54;;;;;;;10.30;7.82;;;2.10;82.00;;;;;;5102253;27;20031;-77
2021/03/07 06:05:20;;;;;;;11.10;7.35;;;2.00;82.10;;;;;;5136920;27;20398;-78
2021/03/07 06:07:47;;;;;;;10.15;8.00;;;1.90;82.70;;;;;;5115400;27;20436;-78
2021/03/07 06:10:13;;;;;;;15.25;10.13;;;1.90;82.80;;;;;;5136227;27;20022;-78
2021/03/07 06:12:40;;;;;;;9.43;7.95;;;1.90;82.90;;;;;;5118855;27;20058;-78
2021/03/07 06:15:07;;;;;;;10.20;8.15;;;2.00;82.50;;;;;;5101997;28;20035;-79
2021/03/07 06:17:42;;;;;;;10.20;8.48;;;2.00;82.30;;;;;;5118406;28;20047;-79
2021/03/07 06:20:09;;;;;;;9.75;7.43;;;2.00;82.10;;;;;;5099989;28;20391;-78
2021/03/07 06:22:36;;;;;;;11.93;8.50;;;2.10;81.90;;;;;;5085956;27;20107;-77
2021/03/07 06:25:12;;;;;;;11.93;9.05;;;2.10;82.10;;;;;;5091183;28;20031;-79
2021/03/07 06:27:39;;;;;;;8.25;7.43;;;2.10;82.10;;;;;;5081922;28;20515;-79
2021/03/07 06:30:13;;;;;;;9.77;7.80;;;1.90;82.30;;;;;;5116741;28;20023;-79
2021/03/07 06:32:41;;;;;;;10.57;8.85;;;2.00;82.30;;;;;;5097842;28;20112;-80
2021/03/07 06:35:10;;;;;;;11.90;9.45;;;1.90;82.30;;;;;;5098972;28;20124;-79
2021/03/07 06:38:11;;;;;;;10.77;8.68;;;2.00;82.50;;;;;;5098853;28;20173;-79
2021/03/07 06:40:44;;;;;;;9.73;8.48;;;1.90;82.80;;;;;;5117150;28;20035;-81
2021/03/07 06:43:21;;;;;;;10.90;8.45;;;1.60;83.70;;;;;;5080707;28;20487;-81
2021/03/07 06:45:47;;;;;;;11.15;7.93;;;1.70;83.50;;;;;;5089577;28;20114;-78
2021/03/07 06:48:13;;;;;;;18.25;13.43;;;1.80;83.20;;;;;;5101309;28;20063;-79
2021/03/07 06:50:56;;;;;;;13.63;10.73;;;1.80;83.20;;;;;;5118899;28;20031;-79
2021/03/07 06:53:38;;;;;;;15.50;8.90;;;1.90;82.50;;;;;;5117015;28;20031;-81
2021/03/07 06:56:05;;;;;;;13.05;9.02;;;2.00;82.30;;;;;;5099574;28;20032;-78
2021/03/07 06:58:31;;;;;;;12.27;9.50;;;2.00;82.50;;;;;;5081633;28;20084;-78
2021/03/07 07:00:57;;;;;;;10.93;9.38;;;1.70;84.00;;;;;;5082113;28;20038;-78
2021/03/07 07:03:23;;;;;;;12.00;9.50;;;1.60;84.60;;;;;;5100020;28;20016;-79
2021/03/07 07:05:54;;;;;;;12.40;10.10;;;1.80;83.70;;;;;;5102869;28;20041;-78
2021/03/07 07:08:44;;;;;;;13.27;9.88;;;2.10;83.20;;;;;;5087176;28;20036;-79
2021/03/07 07:11:10;;;;;;;16.55;10.10;;;2.30;81.90;;;;;;5081209;28;20023;-80
2021/03/07 07:13:47;;;;;;;12.43;9.98;;;2.40;81.90;;;;;;5118517;28;20390;-79
2021/03/07 07:16:13;;;;;;;12.93;10.25;;;2.30;82.20;;;;;;5112640;28;20510;-78
2021/03/07 07:18:43;;;;;;;12.75;10.43;;;2.40;81.50;;;;;;5081125;28;20039;-78
2021/03/07 07:21:14;;;;;;;13.00;10.40;;;2.30;81.70;;;;;;5099345;28;20394;-79
2021/03/07 07:23:40;;;;;;;11.82;10.07;;;2.40;81.80;;;;;;5103040;28;20032;-79
2021/03/07 07:26:06;;;;;;;16.65;12.13;;;2.50;81.50;;;;;;5082112;28;20042;-79
2021/03/07 07:28:34;;;;;;;12.70;10.32;;;2.60;81.10;;;;;;5111189;27;20058;-80
2021/03/07 07:31:31;;;;;;;13.73;10.07;;;2.60;80.80;;;;;;5105124;27;20490;-78
2021/03/07 07:34:02;;;;;;;17.40;10.73;;;2.40;81.80;;;;;;5067714;27;20044;-78
2021/03/07 07:36:48;;;;;;;11.57;9.95;;;2.50;81.40;;;;;;5104611;27;20095;-78
2021/03/07 07:39:22;;;;;;;13.70;10.18;;;2.50;81.60;;;;;;5113981;28;20039;-79
2021/03/07 07:41:47;;;;;;;12.70;10.93;;;2.60;80.90;;;;;;5087260;28;20032;-79
2021/03/07 07:44:16;;;;;;;13.32;10.77;;;2.60;81.00;;;;;;5087615;27;20054;-78
2021/03/07 07:47:02;;;;;;;12.82;10.82;;;2.80;80.50;;;;;;5104285;27;20051;-78
2021/03/07 07:49:42;;;;;;;11.50;9.80;;;3.00;80.70;;;;;;5105191;27;20055;-79
2021/03/07 07:52:26;;;;;;;13.45;11.00;;;2.90;80.30;;;;;;5104644;27;20458;-79
2021/03/07 07:55:04;;;;;;;13.87;10.90;;;3.00;80.80;;;;;;5101165;28;20031;-79
2021/03/07 07:57:36;;;;;;;13.15;10.52;;;3.20;79.40;;;;;;5101435;28;20031;-78
2021/03/07 08:00:21;;;;;;;12.48;10.43;;;3.10;79.40;;;;;;5119790;28;20042;-79
2021/03/07 08:02:51;;;;;;;14.00;11.57;;;2.90;80.60;;;;;;5083692;28;20040;-79
2021/03/07 08:05:24;;;;;;;13.40;10.95;;;2.80;81.10;;;;;;5103345;27;20035;-80
2021/03/07 08:08:11;;;;;;;14.35;11.60;;;3.00;80.60;;;;;;5124986;27;20034;-80
2021/03/07 08:10:37;;;;;;;18.48;13.40;;;3.00;80.50;;;;;;5127954;27;20023;-79
2021/03/07 08:13:03;;;;;;;12.18;10.52;;;3.20;80.10;;;;;;5125710;27;20054;-79
2021/03/07 08:15:29;;;;;;;11.00;9.90;;;3.40;79.00;;;;;;5123733;28;20035;-79
2021/03/07 08:17:57;;;;;;;11.13;9.65;;;3.40;78.80;;;;;;5099197;28;20132;-78
2021/03/07 08:20:38;;;;;;;12.75;9.52;;;3.50;78.60;;;;;;5098328;28;20036;-78
2021/03/07 08:23:05;;;;;;;13.68;10.15;;;3.60;78.60;;;;;;5098768;28;20116;-78
2021/03/07 08:25:49;;;;;;;11.85;10.63;;;3.50;79.10;;;;;;5077910;28;20424;-78
2021/03/07 08:28:26;;;;;;;12.52;10.30;;;3.40;79.70;;;;;;5101235;28;20080;-79
2021/03/07 08:30:59;;;;;;;13.07;10.73;;;3.20;80.00;;;;;;5102937;28;20042;-78
2021/03/07 08:33:36;;;;;;;15.13;11.30;;;3.20;80.40;;;;;;5100607;28;20058;-78
2021/03/07 08:36:17;;;;;;;12.75;11.30;;;3.30;79.90;;;;;;5101137;28;20038;-80
2021/03/07 08:38:49;;;;;;;15.05;11.73;;;3.30;80.00;;;;;;5101063;28;20071;-80
2021/03/07 08:41:33;;;;;;;15.38;11.52;;;2.90;80.90;;;;;;5102969;28;20503;-78
2021/03/07 08:44:09;;;;;;;13.88;10.73;;;2.80;81.60;;;;;;5101307;27;20047;-78
2021/03/07 08:46:40;;;;;;;13.30;10.52;;;2.90;81.10;;;;;;5121223;27;20035;-80
2021/03/07 08:49:13;;;;;;;14.80;11.32;;;2.70;81.50;;;;;;5129058;27;20031;-79
2021/03/07 08:51:45;;;;;;;13.45;11.35;;;2.70;81.90;;;;;;5108090;27;20114;-78
2021/03/07 08:54:16;;;;;;;13.45;10.98;;;3.00;81.00;;;;;;5110022;28;20043;-80
2021/03/07 08:56:43;;;;;;;12.27;10.43;;;3.30;79.90;;;;;;5107955;28;20055;-78
2021/03/07 08:59:11;;;;;;;13.23;10.32;;;3.50;78.90;;;;;;5120930;28;20026;-78
2021/03/07 09:01:40;;;;;;;12.95;10.77;;;3.70;78.40;;;;;;5103040;28;20039;-77
2021/03/07 09:04:11;;;;;;;11.95;10.30;;;3.90;78.30;;;;;;5123857;28;20041;-78
2021/03/07 09:06:43;;;;;;;23.73;16.75;;;3.90;80.40;;;;;;5110143;28;20031;-77
2021/03/07 09:09:27;;;;;;;16.75;12.45;;;4.20;80.70;;;;;;5110785;28;20024;-78
2021/03/07 09:12:00;;;;;;;51.42;28.02;;;4.30;77.20;;;;;;5126671;28;20036;-79
2021/03/07 09:14:36;;;;;;;13.40;10.98;;;4.00;76.50;;;;;;5120204;28;20020;-77
2021/03/07 09:17:04;;;;;;;14.18;10.77;;;4.20;76.20;;;;;;5125084;27;20031;-77
2021/03/07 09:19:39;;;;;;;12.45;10.75;;;4.10;76.40;;;;;;5126718;27;20023;-77
2021/03/07 09:22:19;;;;;;;13.60;10.48;;;3.80;77.10;;;;;;5128047;27;20026;-78
2021/03/07 09:25:21;;;;;;;13.63;11.52;;;3.60;77.70;;;;;;5123970;28;20067;-79
2021/03/07 09:27:47;;;;;;;12.18;10.85;;;3.30;79.00;;;;;;5115147;27;20026;-79
2021/03/07 09:30:14;;;;;;;12.60;11.07;;;3.50;78.60;;;;;;5128715;28;20027;-78
2021/03/07 09:32:42;;;;;;;13.98;10.88;;;3.40;78.90;;;;;;5112444;28;20036;-78
2021/03/07 09:35:31;;;;;;;13.23;10.90;;;3.40;78.70;;;;;;5118649;27;20520;-80
2021/03/07 09:38:06;;;;;;;15.40;11.27;;;3.40;78.70;;;;;;5117627;27;20042;-78
2021/03/07 09:40:34;;;;;;;12.30;11.05;;;3.40;78.40;;;;;;5119054;27;20072;-80
2021/03/07 09:43:04;;;;;;;15.82;11.02;;;3.40;78.50;;;;;;5103465;28;20035;-78
2021/03/07 09:45:31;;;;;;;13.20;11.00;;;3.50;78.10;;;;;;5117838;28;20024;-82
2021/03/07 09:47:57;;;;;;;11.77;10.57;;;3.60;78.30;;;;;;5108013;28;20055;-82
2021/03/07 09:50:24;;;;;;;12.32;10.65;;;3.80;77.30;;;;;;5122896;27;20020;-80
2021/03/07 09:52:51;;;;;;;15.02;11.13;;;3.90;76.90;;;;;;5068226;27;20027;-81
2021/03/07 09:55:30;;;;;;;12.77;11.43;;;3.80;77.20;;;;;;5114662;27;20039;-82
2021/03/07 09:58:04;;;;;;;14.38;11.15;;;4.00;76.30;;;;;;5123636;28;20028;-80
2021/03/07 10:00:31;;;;;;;17.77;12.93;;;3.90;77.00;;;;;;5086529;28;20035;-81
2021/03/07 10:03:24;;;;;;;15.73;12.05;;;4.00;77.00;;;;;;5110560;27;20034;-80
2021/03/07 10:06:20;;;;;;;14.05;11.18;;;3.80;77.80;;;;;;5117422;28;20032;-81
2021/03/07 10:09:02;;;;;;;12.98;11.57;;;4.00;77.40;;;;;;5101908;28;20118;-83
2021/03/07 10:11:31;;;;;;;15.10;11.38;;;4.00;77.10;;;;;;5137413;27;20027;-81
2021/03/07 10:13:58;;;;;;;12.57;11.05;;;4.00;77.30;;;;;;5123533;27;20031;-82
2021/03/07 10:16:26;;;;;;;15.45;11.27;;;3.70;77.90;;;;;;5105088;27;20050;-81
2021/03/07 10:19:08;;;;;;;16.20;11.55;;;3.70;78.20;;;;;;5098209;28;20035;-82
2021/03/07 10:21:43;;;;;;;14.60;11.88;;;3.80;78.10;;;;;;5118480;28;20051;-81
2021/03/07 10:24:12;;;;;;;12.38;10.35;;;4.00;77.20;;;;;;5085065;28;20028;-81
2021/03/07 10:26:39;;;;;;;16.13;11.40;;;4.00;77.10;;;;;;5088511;28;20217;-81
2021/03/07 10:29:35;;;;;;;13.88;12.00;;;4.00;77.10;;;;;;5124263;27;20030;-78
2021/03/07 10:32:09;;;;;;;12.98;10.70;;;3.80;77.50;;;;;;5120256;28;20023;-79
2021/03/07 10:34:48;;;;;;;12.05;10.77;;;3.70;78.00;;;;;;5106340;28;20030;-83
2021/03/07 10:37:33;;;;;;;12.57;9.90;;;3.70;78.20;;;;;;5102917;28;20043;-83
2021/03/07 10:39:58;;;;;;;14.75;11.95;;;4.00;77.00;;;;;;5093762;28;20050;-82
2021/03/07 10:42:34;;;;;;;10.63;9.52;;;4.00;76.70;;;;;;5116172;28;20032;-79
2021/03/07 10:45:16;;;;;;;10.75;9.65;;;4.20;75.90;;;;;;5123275;28;20042;-81
2021/03/07 10:47:43;;;;;;;12.40;10.50;;;4.50;75.10;;;;;;5095321;28;20055;-81
2021/03/07 10:50:11;;;;;;;13.05;10.35;;;4.50;74.20;;;;;;5102033;28;20020;-81
2021/03/07 10:52:36;;;;;;;14.98;10.32;;;4.60;74.50;;;;;;5114451;28;20037;-80
2021/03/07 10:55:13;;;;;;;12.95;10.32;;;4.70;73.70;;;;;;5121899;27;20454;-80
2021/03/07 10:57:39;;;;;;;10.60;9.40;;;4.60;73.40;;;;;;5111026;27;20026;-82
2021/03/07 11:00:05;;;;;;;10.32;8.55;;;4.90;72.50;;;;;;5104241;28;20035;-82
2021/03/07 11:02:31;;;;;;;11.18;8.73;;;5.20;71.20;;;;;;5090204;28;20418;-81
2021/03/07 11:04:56;;;;;;;10.45;8.80;;;5.40;70.40;;;;;;5074786;27;20031;-85
2021/03/07 11:07:22;;;;;;;9.80;8.75;;;5.60;69.30;;;;;;5076120;28;20038;-83
2021/03/07 11:09:48;;;;;;;11.35;8.35;;;5.50;68.30;;;;;;5073300;28;20032;-83
2021/03/07 11:12:13;;;;;;;10.00;8.00;;;5.50;68.60;;;;;;5139196;27;20023;-84
2021/03/07 11:14:41;;;;;;;9.32;7.88;;;5.50;68.80;;;;;;5091853;28;20032;-83
2021/03/07 11:17:22;;;;;;;8.85;7.70;;;5.50;67.30;;;;;;5129471;27;20035;-84
2021/03/07 11:19:50;;;;;;;9.77;8.77;;;5.20;68.80;;;;;;5086573;28;20040;-83
2021/03/07 11:22:16;;;;;;;10.75;9.02;;;5.20;69.60;;;;;;5103595;28;20110;-82
2021/03/07 11:27:35;;;;;;;13.35;8.68;;;5.20;70.00;;;;;;5090385;28;20119;-82
2021/03/07 11:30:05;;;;;;;9.35;8.40;;;5.30;69.80;;;;;;5103038;27;20111;-82
2021/03/07 11:32:30;;;;;;;10.65;8.30;;;5.40;69.40;;;;;;5109603;27;20060;-81
2021/03/07 11:34:59;;;;;;;10.75;8.25;;;5.10;68.90;;;;;;5099652;28;20032;-82
2021/03/07 11:37:25;;;;;;;9.93;7.88;;;5.10;68.30;;;;;;5095833;28;20044;-81
2021/03/07 11:39:53;;;;;;;9.82;8.05;;;4.90;68.60;;;;;;5078941;28;20046;-81
2021/03/07 11:42:19;;;;;;;10.77;9.55;;;5.00;68.50;;;;;;5091624;28;20054;-81
2021/03/07 11:44:54;;;;;;;11.13;8.18;;;5.30;68.10;;;;;;5113653;27;20401;-79
2021/03/07 11:47:19;;;;;;;10.32;7.85;;;5.10;66.60;;;;;;5092992;28;20039;-83
2021/03/07 11:49:45;;;;;;;9.20;8.18;;;5.40;67.10;;;;;;5111353;28;20100;-83
2021/03/07 11:52:11;;;;;;;9.75;7.93;;;5.60;67.20;;;;;;5074622;28;20039;-83
2021/03/07 11:54:37;;;;;;;10.55;7.75;;;5.50;66.70;;;;;;5096051;28;20039;-84
2021/03/07 11:57:04;;;;;;;9.75;8.70;;;5.30;67.60;;;;;;5110854;28;20023;-82
2021/03/07 11:59:33;;;;;;;11.65;8.32;;;5.30;67.70;;;;;;5115695;27;20109;-83
2021/03/07 12:01:59;;;;;;;9.25;7.97;;;5.30;67.60;;;;;;5110226;27;20123;-84
2021/03/07 12:04:25;;;;;;;9.60;7.18;;;5.20;67.90;;;;;;5126623;27;20027;-83
2021/03/07 12:06:51;;;;;;;9.38;6.25;;;5.20;67.50;;;;;;5109258;28;20054;-83
2021/03/07 12:09:19;;;;;;;8.02;6.68;;;5.20;65.70;;;;;;5082232;27;20036;-82
2021/03/07 12:12:23;;;;;;;7.30;5.53;;;5.10;66.30;;;;;;5131566;27;20028;-83
2021/03/07 12:14:54;;;;;;;8.07;5.93;;;5.00;65.90;;;;;;5115034;28;20057;-80
2021/03/07 12:17:26;;;;;;;5.95;5.35;;;5.00;65.80;;;;;;5135322;28;20016;-84
2021/03/07 12:19:52;;;;;;;7.70;5.93;;;5.00;65.70;;;;;;5117074;28;20503;-84
2021/03/07 12:22:17;;;;;;;9.73;5.68;;;4.90;66.00;;;;;;5101846;28;20023;-82
2021/03/07 12:24:43;;;;;;;8.88;5.75;;;5.10;65.20;;;;;;5119858;28;20058;-82
2021/03/07 12:27:49;;;;;;;9.90;6.72;;;5.30;65.20;;;;;;5111613;28;20489;-83
2021/03/07 12:30:21;;;;;;;;;;;5.50;64.50;;;;;;5084094;28;20546;-82
2021/03/07 12:32:46;;;;;;;8.18;6.00;;;5.60;64.30;;;;;;5103653;28;19947;-82
2021/03/07 12:35:14;;;;;;;7.63;6.30;;;5.60;63.60;;;;;;5141055;27;20024;-81
2021/03/07 12:37:40;;;;;;;9.02;6.95;;;5.40;64.30;;;;;;5103896;28;20110;-81
2021/03/07 12:40:06;;;;;;;8.48;6.22;;;5.60;64.80;;;;;;5086262;28;20072;-81
2021/03/07 12:42:32;;;;;;;7.97;6.43;;;5.80;63.70;;;;;;5086423;28;20024;-80
2021/03/07 12:45:00;;;;;;;6.90;6.20;;;5.80;63.30;;;;;;5083283;28;20049;-81
2021/03/07 12:47:25;;;;;;;8.00;5.93;;;5.60;63.90;;;;;;5081795;28;20078;-82
2021/03/07 12:49:55;;;;;;;8.38;6.53;;;5.60;63.60;;;;;;5099045;28;20069;-83
2021/03/07 12:52:24;;;;;;;7.57;6.28;;;5.90;62.90;;;;;;5098199;28;20028;-81
2021/03/07 12:55:13;;;;;;;7.05;5.60;;;6.10;59.90;;;;;;5123151;27;20504;-81
2021/03/07 12:57:43;;;;;;;6.50;5.55;;;6.30;59.80;;;;;;5039836;28;20102;-81
2021/03/07 13:00:21;;;;;;;6.93;6.22;;;6.40;59.70;;;;;;5098413;28;20043;-82
2021/03/07 13:02:47;;;;;;;7.63;6.60;;;6.20;59.10;;;;;;5121833;27;20046;-83
2021/03/07 13:05:13;;;;;;;7.00;6.10;;;6.10;60.10;;;;;;5127420;27;20023;-81
2021/03/07 13:07:38;;;;;;;8.88;7.15;;;6.00;60.20;;;;;;5095551;28;20035;-82